Time;durP1;ratioP1;P1;durP2;ratioP2;P2;SDS_P1;SDS_P2;PMS_P1;PMS_P2;Temp;Humidity;BMP_temperature;BMP_pressure;BME280_temperature;BME280_humidity;BME280_pressure;Samples;Min_cycle;Max_cycle;Signal;HPM_P1;HPM_P2
2021/07/02 00:00:20;;;;;;;14.68;13.23;;;20.60;63.20;;;;;;4910926;29;20391;-75
2021/07/02 00:02:46;;;;;;;15.90;14.50;;;20.50;63.00;;;;;;4911218;29;20036;-74
2021/07/02 00:05:13;;;;;;;15.48;13.55;;;20.50;63.10;;;;;;4925108;29;20082;-75
2021/07/02 00:07:40;;;;;;;15.65;14.20;;;20.50;63.20;;;;;;4925978;29;20047;-77
2021/07/02 00:10:07;;;;;;;16.77;15.18;;;20.50;63.20;;;;;;4909514;29;20039;-74
2021/07/02 00:12:34;;;;;;;14.73;13.50;;;20.50;63.30;;;;;;4911158;28;20028;-74
2021/07/02 00:15:00;;;;;;;15.63;14.05;;;20.40;63.10;;;;;;4909997;29;20062;-74
2021/07/02 00:17:26;;;;;;;15.55;14.15;;;20.40;63.80;;;;;;4910421;29;20172;-75
2021/07/02 00:19:55;;;;;;;16.80;15.05;;;20.40;63.30;;;;;;4924872;29;20033;-74
2021/07/02 00:22:21;;;;;;;16.02;14.52;;;20.40;63.30;;;;;;4911137;29;20110;-77
2021/07/02 00:24:49;;;;;;;15.98;14.52;;;20.30;63.20;;;;;;4910474;29;20039;-75
2021/07/02 00:27:15;;;;;;;15.88;14.27;;;20.40;63.40;;;;;;4910246;28;20410;-76
2021/07/02 00:29:41;;;;;;;16.67;14.98;;;20.30;63.30;;;;;;4911187;29;20035;-75
2021/07/02 00:32:07;;;;;;;15.05;13.68;;;20.30;63.40;;;;;;4910500;28;20494;-74
2021/07/02 00:34:34;;;;;;;18.35;15.40;;;20.30;63.40;;;;;;4910257;29;20064;-75
2021/07/02 00:37:00;;;;;;;16.33;14.73;;;20.30;63.40;;;;;;4910916;29;20126;-74
2021/07/02 00:39:26;;;;;;;16.80;15.20;;;20.30;63.50;;;;;;4910805;29;20028;-74
2021/07/02 00:41:52;;;;;;;16.85;15.18;;;20.30;63.50;;;;;;4924343;29;20559;-75
2021/07/02 00:44:36;;;;;;;16.92;15.43;;;20.20;63.40;;;;;;4909903;29;20024;-75
2021/07/02 00:47:02;;;;;;;16.92;15.20;;;20.30;63.70;;;;;;4909416;28;20121;-75
2021/07/02 00:49:28;;;;;;;16.40;14.75;;;20.20;63.50;;;;;;4924602;29;20032;-74
2021/07/02 00:51:55;;;;;;;15.88;14.38;;;20.20;63.50;;;;;;4924936;29;20483;-75
2021/07/02 00:54:21;;;;;;;16.60;15.10;;;20.20;63.60;;;;;;4924338;29;20039;-75
2021/07/02 00:56:48;;;;;;;16.88;15.38;;;20.10;63.40;;;;;;4909022;29;20076;-75
2021/07/02 00:59:14;;;;;;;17.75;16.08;;;20.10;63.50;;;;;;4910069;29;20468;-74
2021/07/02 01:01:40;;;;;;;16.70;15.20;;;20.10;63.50;;;;;;4925400;29;20032;-74
2021/07/02 01:04:07;;;;;;;16.65;14.88;;;20.10;63.60;;;;;;4908765;29;20028;-74
2021/07/02 01:06:33;;;;;;;17.45;15.80;;;20.10;63.60;;;;;;4924620;29;20036;-75
2021/07/02 01:09:03;;;;;;;16.25;14.63;;;20.10;63.70;;;;;;4924400;29;20047;-74
2021/07/02 01:11:29;;;;;;;18.38;16.63;;;20.10;63.70;;;;;;4909463;29;20046;-74
2021/07/02 01:13:56;;;;;;;17.20;15.57;;;20.10;63.80;;;;;;4908962;29;20036;-73
2021/07/02 01:16:23;;;;;;;18.35;16.42;;;20.00;63.60;;;;;;4923869;29;20490;-73
2021/07/02 01:18:50;;;;;;;16.80;15.25;;;20.00;63.60;;;;;;4924744;29;20051;-75
2021/07/02 01:21:18;;;;;;;16.80;15.15;;;20.00;63.70;;;;;;4909432;29;20047;-74
2021/07/02 01:23:44;;;;;;;17.52;15.95;;;20.00;63.70;;;;;;4910544;29;20364;-74
2021/07/02 01:26:12;;;;;;;17.27;15.82;;;20.00;63.70;;;;;;4924723;29;20040;-75
2021/07/02 01:28:38;;;;;;;17.30;15.70;;;20.00;63.80;;;;;;4924451;29;20044;-74
2021/07/02 01:31:05;;;;;;;17.30;15.68;;;19.90;63.60;;;;;;4914866;23;21090;-74
2021/07/02 01:33:30;;;;;;;17.80;16.25;;;19.90;63.70;;;;;;4900448;29;20067;-74
2021/07/02 01:36:21;;;;;;;18.85;16.90;;;19.90;63.70;;;;;;4891085;29;20369;-75
2021/07/02 01:38:49;;;;;;;17.45;15.80;;;19.90;63.80;;;;;;4897243;29;20089;-75
2021/07/02 01:41:16;;;;;;;17.00;15.40;;;19.90;63.70;;;;;;4909403;29;20032;-74
2021/07/02 01:43:44;;;;;;;18.02;16.33;;;19.80;63.60;;;;;;4909788;29;20032;-74
2021/07/02 01:46:12;;;;;;;17.30;15.77;;;19.80;63.70;;;;;;4917052;23;20325;-78
2021/07/02 01:48:38;;;;;;;18.40;16.75;;;19.80;63.80;;;;;;4913225;29;20036;-74
2021/07/02 01:51:05;;;;;;;17.95;16.27;;;19.80;63.80;;;;;;4914442;29;20032;-75
2021/07/02 01:53:31;;;;;;;17.70;16.00;;;19.80;63.80;;;;;;4913410;29;20028;-74
2021/07/02 01:55:57;;;;;;;18.13;16.23;;;19.70;63.70;;;;;;4913135;29;20032;-75
2021/07/02 01:58:23;;;;;;;18.63;16.30;;;19.70;63.70;;;;;;4914601;29;20047;-75
2021/07/02 02:01:04;;;;;;;17.95;16.15;;;19.70;63.80;;;;;;4913276;29;20033;-74
2021/07/02 02:03:30;;;;;;;16.73;15.23;;;19.70;63.80;;;;;;4914491;29;20038;-75
2021/07/02 02:05:57;;;;;;;17.42;15.93;;;19.70;63.80;;;;;;4912916;29;20056;-74
2021/07/02 02:08:24;;;;;;;17.45;15.73;;;19.60;63.70;;;;;;4913165;29;20483;-75
2021/07/02 02:10:52;;;;;;;17.33;15.73;;;19.60;63.70;;;;;;4914221;29;20110;-78
2021/07/02 02:13:21;;;;;;;19.00;17.30;;;19.50;63.60;;;;;;4913140;29;20037;-77
2021/07/02 02:15:54;;;;;;;20.33;16.48;;;19.50;63.60;;;;;;4897661;29;20048;-77
2021/07/02 02:18:21;;;;;;;18.52;16.77;;;19.50;63.70;;;;;;4915724;29;20036;-74
2021/07/02 02:20:50;;;;;;;17.85;16.08;;;19.40;63.60;;;;;;4916631;29;20494;-79
2021/07/02 02:23:17;;;;;;;17.98;16.30;;;19.40;63.60;;;;;;4917316;29;20032;-74
2021/07/02 02:25:43;;;;;;;19.05;17.10;;;19.40;63.70;;;;;;4917833;29;20084;-77
2021/07/02 02:28:09;;;;;;;18.00;16.33;;;19.30;63.60;;;;;;4916170;29;20092;-79
2021/07/02 02:30:36;;;;;;;18.48;16.77;;;19.30;63.60;;;;;;4915795;29;20063;-78
2021/07/02 02:33:05;;;;;;;18.77;16.98;;;19.30;63.70;;;;;;4916733;29;20158;-77
2021/07/02 02:35:34;;;;;;;18.00;16.23;;;19.20;63.60;;;;;;4900573;29;20048;-74
2021/07/02 02:38:02;;;;;;;18.35;16.45;;;19.20;63.70;;;;;;4917307;29;20404;-74
2021/07/02 02:40:29;;;;;;;18.13;16.45;;;19.20;63.70;;;;;;4915902;29;20479;-76
2021/07/02 02:42:55;;;;;;;18.05;16.40;;;19.10;63.60;;;;;;4916578;29;20043;-74
2021/07/02 02:45:21;;;;;;;18.77;17.13;;;19.10;63.70;;;;;;4915878;29;20048;-75
2021/07/02 02:47:49;;;;;;;18.65;16.50;;;19.10;63.70;;;;;;4915620;29;20048;-74
2021/07/02 02:50:15;;;;;;;17.42;15.80;;;19.10;63.80;;;;;;4916325;29;20042;-74
2021/07/02 02:52:41;;;;;;;17.38;15.70;;;19.10;63.80;;;;;;4916929;29;20028;-75
2021/07/02 02:55:08;;;;;;;18.23;16.52;;;19.00;63.70;;;;;;4915704;29;20623;-74
2021/07/02 02:57:34;;;;;;;18.75;16.75;;;19.00;63.70;;;;;;4916951;29;20447;-74
2021/07/02 03:00:00;;;;;;;18.50;16.60;;;19.00;63.80;;;;;;4916967;29;20028;-74
2021/07/02 03:02:26;;;;;;;18.48;16.67;;;19.00;63.90;;;;;;4915696;29;20028;-76
2021/07/02 03:04:55;;;;;;;19.20;17.40;;;19.00;63.90;;;;;;4916982;29;20084;-74
2021/07/02 03:07:22;;;;;;;18.50;16.67;;;19.00;63.90;;;;;;4916032;29;20052;-74
2021/07/02 03:09:49;;;;;;;18.15;16.40;;;19.00;63.90;;;;;;4921748;29;20039;-75
2021/07/02 03:12:15;;;;;;;17.30;15.65;;;18.90;63.80;;;;;;4917152;29;20032;-74
2021/07/02 03:14:42;;;;;;;17.90;16.17;;;19.00;64.00;;;;;;4915800;29;20110;-73
2021/07/02 03:17:09;;;;;;;19.63;17.73;;;18.90;63.90;;;;;;4916448;29;20388;-75
2021/07/02 03:19:40;;;;;;;19.60;17.75;;;18.90;63.90;;;;;;4916079;29;20059;-78
2021/07/02 03:22:06;;;;;;;19.55;17.77;;;18.90;63.90;;;;;;4916789;29;20087;-74
2021/07/02 03:24:35;;;;;;;18.40;16.40;;;18.90;64.00;;;;;;4917218;29;20452;-77
2021/07/02 03:27:02;;;;;;;18.98;17.17;;;18.90;64.00;;;;;;4916065;29;20033;-78
2021/07/02 03:29:28;;;;;;;19.10;17.20;;;18.90;64.00;;;;;;4917314;29;20113;-78
2021/07/02 03:31:54;;;;;;;18.40;16.58;;;18.90;64.10;;;;;;4901217;29;20043;-79
2021/07/02 03:34:22;;;;;;;18.40;16.70;;;18.90;64.10;;;;;;4915893;29;20028;-73
2021/07/02 03:36:51;;;;;;;17.67;15.98;;;18.80;63.90;;;;;;4915485;29;20032;-78
2021/07/02 03:39:17;;;;;;;19.02;17.35;;;18.80;63.90;;;;;;4917230;29;20448;-79
2021/07/02 03:41:44;;;;;;;20.27;18.17;;;18.80;64.00;;;;;;4916541;29;20032;-77
2021/07/02 03:44:12;;;;;;;18.90;17.05;;;18.80;64.00;;;;;;4915783;29;20107;-80
2021/07/02 03:46:38;;;;;;;18.85;16.92;;;18.80;64.10;;;;;;4914568;29;20048;-77
2021/07/02 03:49:04;;;;;;;19.33;17.42;;;18.80;64.10;;;;;;4915632;29;20135;-79
2021/07/02 03:51:31;;;;;;;19.13;17.27;;;18.80;64.10;;;;;;4916602;29;20388;-78
2021/07/02 03:53:57;;;;;;;19.33;17.42;;;18.80;64.10;;;;;;4916443;29;20047;-74
2021/07/02 03:56:23;;;;;;;20.77;18.88;;;18.70;63.90;;;;;;4916357;29;20028;-77
2021/07/02 03:58:49;;;;;;;18.67;16.67;;;18.70;63.90;;;;;;4916580;29;20084;-79
2021/07/02 04:01:15;;;;;;;19.42;17.58;;;18.70;64.00;;;;;;4916426;29;20067;-78
2021/07/02 04:03:41;;;;;;;18.30;16.55;;;18.70;64.00;;;;;;4916523;29;20487;-78
2021/07/02 04:06:07;;;;;;;19.25;17.35;;;18.70;64.00;;;;;;4916633;29;20047;-78
2021/07/02 04:08:33;;;;;;;19.75;17.85;;;18.70;64.00;;;;;;4916000;29;20036;-79
2021/07/02 04:10:59;;;;;;;19.40;17.38;;;18.60;63.90;;;;;;4916411;29;20028;-76
2021/07/02 04:13:25;;;;;;;19.80;17.80;;;18.60;63.90;;;;;;4914914;29;20032;-73
2021/07/02 04:15:53;;;;;;;19.05;17.27;;;18.60;63.90;;;;;;4915327;29;20036;-78
2021/07/02 04:18:20;;;;;;;19.77;17.88;;;18.60;64.00;;;;;;4926417;29;20032;-77
2021/07/02 04:20:46;;;;;;;19.35;17.50;;;18.50;63.80;;;;;;4917457;29;20039;-78
2021/07/02 04:23:12;;;;;;;18.25;16.65;;;18.50;63.90;;;;;;4915554;29;20484;-78
2021/07/02 04:25:38;;;;;;;18.95;17.05;;;18.50;63.90;;;;;;4914816;29;20024;-79
2021/07/02 04:28:04;;;;;;;20.77;18.75;;;18.40;63.80;;;;;;4914563;29;20135;-80
2021/07/02 04:30:30;;;;;;;20.58;18.48;;;18.40;63.90;;;;;;4930284;29;20025;-74
2021/07/02 04:32:56;;;;;;;20.52;16.75;;;18.40;64.00;;;;;;4915179;29;20036;-74
2021/07/02 04:35:22;;;;;;;19.67;17.65;;;18.30;63.80;;;;;;4914295;29;20054;-75
2021/07/02 04:37:48;;;;;;;18.40;16.58;;;18.30;63.80;;;;;;4914679;29;20044;-75
2021/07/02 04:40:14;;;;;;;19.10;17.17;;;18.30;63.90;;;;;;4914917;29;20031;-75
2021/07/02 04:42:41;;;;;;;19.67;17.88;;;18.30;64.00;;;;;;4914690;29;20126;-76
2021/07/02 04:45:07;;;;;;;19.92;18.13;;;18.30;64.00;;;;;;4914576;29;20111;-74
2021/07/02 04:47:33;;;;;;;19.60;17.65;;;18.30;64.00;;;;;;4917252;29;20052;-74
2021/07/02 04:50:02;;;;;;;18.92;17.17;;;18.30;64.00;;;;;;4916229;29;20036;-73
2021/07/02 04:52:28;;;;;;;18.67;16.92;;;18.20;63.90;;;;;;4920488;29;20483;-79
2021/07/02 04:54:54;;;;;;;19.15;17.33;;;18.20;63.90;;;;;;4936484;29;20091;-78
2021/07/02 04:57:20;;;;;;;19.02;17.02;;;18.20;63.90;;;;;;4914136;29;20043;-74
2021/07/02 04:59:49;;;;;;;19.58;17.65;;;18.20;64.00;;;;;;4931184;29;20028;-74
2021/07/02 05:02:15;;;;;;;18.98;17.13;;;18.20;63.90;;;;;;4942271;29;20034;-74
2021/07/02 05:04:41;;;;;;;18.90;17.10;;;18.20;64.00;;;;;;4910731;29;20040;-76
2021/07/02 05:07:08;;;;;;;18.45;16.88;;;18.20;64.00;;;;;;4910080;29;20043;-74
2021/07/02 05:09:35;;;;;;;20.10;18.15;;;18.20;64.00;;;;;;4928209;29;20386;-74
2021/07/02 05:12:03;;;;;;;18.33;16.45;;;18.20;64.00;;;;;;4919330;29;20023;-73
2021/07/02 05:14:29;;;;;;;19.02;17.25;;;18.20;64.00;;;;;;4928989;29;20039;-74
2021/07/02 05:16:55;;;;;;;18.15;16.45;;;18.20;64.00;;;;;;4927970;29;20389;-73
2021/07/02 05:19:21;;;;;;;18.13;16.33;;;18.20;64.00;;;;;;4911492;29;20095;-74
2021/07/02 05:21:47;;;;;;;18.10;16.50;;;18.20;64.00;;;;;;4929443;29;20086;-75
2021/07/02 05:24:13;;;;;;;19.95;17.83;;;18.20;64.00;;;;;;4928443;29;20039;-75
2021/07/02 05:26:39;;;;;;;19.23;17.33;;;18.20;64.10;;;;;;4928640;29;20363;-74
2021/07/02 05:29:05;;;;;;;18.90;17.17;;;18.20;64.10;;;;;;4929185;29;20048;-76
2021/07/02 05:31:31;;;;;;;19.30;17.40;;;18.20;64.10;;;;;;4928207;29;20035;-74
2021/07/02 05:33:57;;;;;;;20.10;18.20;;;18.20;64.00;;;;;;4921803;29;20067;-74
2021/07/02 05:36:23;;;;;;;18.48;16.73;;;18.30;64.20;;;;;;4911976;29;20028;-73
2021/07/02 05:38:48;;;;;;;18.83;16.30;;;18.30;64.20;;;;;;4928792;29;20036;-74
2021/07/02 05:41:14;;;;;;;17.85;16.05;;;18.30;64.20;;;;;;4918746;29;20038;-75
2021/07/02 05:43:41;;;;;;;17.58;15.82;;;18.30;64.20;;;;;;4924897;29;20127;-73
2021/07/02 05:46:07;;;;;;;18.58;16.77;;;18.40;64.30;;;;;;4911548;29;20447;-73
2021/07/02 05:48:33;;;;;;;18.17;16.52;;;18.40;64.30;;;;;;4928190;29;20044;-73
2021/07/02 05:50:59;;;;;;;18.15;16.33;;;18.50;64.40;;;;;;4912946;29;20388;-72
2021/07/02 05:53:25;;;;;;;18.15;16.45;;;18.60;64.50;;;;;;4919660;29;20069;-72
2021/07/02 05:55:51;;;;;;;18.42;16.70;;;18.60;64.30;;;;;;4918781;29;20209;-73
2021/07/02 05:58:17;;;;;;;18.10;16.42;;;18.70;64.40;;;;;;4942413;29;20048;-71
2021/07/02 06:00:43;;;;;;;22.67;20.48;;;18.80;64.60;;;;;;4925482;29;20038;-76
2021/07/02 06:03:09;;;;;;;28.00;25.10;;;18.90;64.80;;;;;;4916152;29;20043;-78
2021/07/02 06:05:35;;;;;;;27.83;25.08;;;19.00;65.10;;;;;;4927904;29;20036;-76
2021/07/02 06:08:02;;;;;;;28.35;25.48;;;19.00;65.10;;;;;;4919543;29;20519;-77
2021/07/02 06:10:28;;;;;;;34.90;28.80;;;19.10;65.30;;;;;;4915574;29;20032;-78
2021/07/02 06:12:55;;;;;;;33.10;28.63;;;19.20;65.40;;;;;;4921218;29;20032;-78
2021/07/02 06:15:21;;;;;;;29.35;26.25;;;19.30;65.50;;;;;;4931496;29;20395;-76
2021/07/02 06:17:49;;;;;;;28.75;25.65;;;19.40;65.50;;;;;;4931810;29;20036;-76
2021/07/02 06:20:16;;;;;;;28.63;25.10;;;19.50;65.60;;;;;;4946812;29;20039;-85
2021/07/02 06:22:43;;;;;;;26.33;23.80;;;19.60;65.70;;;;;;4927425;29;20064;-80
2021/07/02 06:25:11;;;;;;;26.10;23.60;;;19.70;65.70;;;;;;4912224;29;20040;-72
2021/07/02 06:27:37;;;;;;;25.55;22.83;;;19.80;65.80;;;;;;4930109;29;20043;-76
2021/07/02 06:30:05;;;;;;;24.67;22.35;;;19.80;65.80;;;;;;4930632;29;20035;-75
2021/07/02 06:32:31;;;;;;;24.27;21.90;;;20.00;66.00;;;;;;4932025;29;20488;-74
2021/07/02 06:34:57;;;;;;;23.27;20.90;;;20.10;66.10;;;;;;4927311;29;20034;-76
2021/07/02 06:37:23;;;;;;;21.80;19.50;;;20.20;66.10;;;;;;4928305;29;20028;-74
2021/07/02 06:39:49;;;;;;;20.30;18.42;;;20.40;66.10;;;;;;4922854;29;20020;-73
2021/07/02 06:42:15;;;;;;;20.25;18.35;;;20.50;65.80;;;;;;4913436;29;20547;-73
2021/07/02 06:44:41;;;;;;;21.30;19.25;;;20.70;66.00;;;;;;4927146;29;20030;-72
2021/07/02 06:47:07;;;;;;;22.10;19.83;;;20.90;66.00;;;;;;4928762;29;20052;-75
2021/07/02 06:49:33;;;;;;;20.95;18.02;;;21.10;65.90;;;;;;4942246;29;20035;-73
2021/07/02 06:51:59;;;;;;;20.02;18.33;;;21.40;65.90;;;;;;4929999;29;20043;-72
2021/07/02 06:54:25;;;;;;;20.00;18.05;;;21.60;65.80;;;;;;4944633;29;20441;-72
2021/07/02 06:57:00;;;;;;;19.98;17.42;;;21.80;65.50;;;;;;4919702;29;20047;-72
2021/07/02 06:59:28;;;;;;;20.80;18.60;;;21.90;65.10;;;;;;4928394;29;20028;-74
2021/07/02 07:01:55;;;;;;;20.10;18.15;;;21.90;64.70;;;;;;4929990;29;20039;-73
2021/07/02 07:04:21;;;;;;;18.77;16.70;;;21.90;64.50;;;;;;4929774;29;20384;-72
2021/07/02 07:06:47;;;;;;;19.27;17.38;;;21.90;64.40;;;;;;4931065;29;20036;-72
2021/07/02 07:09:13;;;;;;;19.50;17.38;;;21.90;64.20;;;;;;4944866;29;20050;-73
2021/07/02 07:11:39;;;;;;;20.52;18.65;;;21.90;64.70;;;;;;4930648;29;20035;-73
2021/07/02 07:14:05;;;;;;;19.48;17.67;;;21.90;64.10;;;;;;4929272;29;20039;-72
2021/07/02 07:16:31;;;;;;;19.50;17.10;;;21.90;64.00;;;;;;4929783;29;20390;-75
2021/07/02 07:18:57;;;;;;;18.45;16.63;;;21.80;63.70;;;;;;4929201;29;20035;-72
2021/07/02 07:21:23;;;;;;;19.05;17.08;;;21.80;63.70;;;;;;4930958;29;20538;-73
2021/07/02 07:23:49;;;;;;;19.88;17.98;;;21.80;63.60;;;;;;4929561;29;20403;-74
2021/07/02 07:26:15;;;;;;;18.67;16.98;;;21.80;63.60;;;;;;4929425;29;20036;-72
2021/07/02 07:28:41;;;;;;;21.02;19.00;;;21.80;63.50;;;;;;4930682;29;20373;-73
2021/07/02 07:31:09;;;;;;;20.25;17.27;;;21.80;63.30;;;;;;4930568;29;20365;-71
2021/07/02 07:33:39;;;;;;;19.15;17.33;;;21.90;63.30;;;;;;4918757;29;20047;-72
2021/07/02 07:36:07;;;;;;;19.17;17.30;;;21.90;63.20;;;;;;4911040;29;20032;-72
2021/07/02 07:38:33;;;;;;;19.13;17.08;;;22.00;63.40;;;;;;4921121;29;20036;-72
2021/07/02 07:40:59;;;;;;;19.73;17.73;;;22.00;63.40;;;;;;4929038;29;20402;-72
2021/07/02 07:43:27;;;;;;;20.02;17.85;;;22.00;63.30;;;;;;4909477;29;20489;-72
2021/07/02 07:45:53;;;;;;;20.67;18.52;;;22.10;63.40;;;;;;4911690;29;20253;-74
2021/07/02 07:48:19;;;;;;;20.73;18.58;;;22.10;63.30;;;;;;4917512;29;20123;-72
2021/07/02 07:50:49;;;;;;;20.08;17.98;;;22.10;63.30;;;;;;4930267;29;20118;-70
2021/07/02 07:53:15;;;;;;;20.90;18.80;;;22.10;63.20;;;;;;4920612;29;20489;-72
2021/07/02 07:55:41;;;;;;;22.00;19.77;;;22.00;62.90;;;;;;4910552;29;20028;-71
2021/07/02 07:58:07;;;;;;;23.08;20.80;;;22.10;63.10;;;;;;4910996;29;20047;-72
2021/07/02 08:00:33;;;;;;;25.52;22.83;;;22.10;63.10;;;;;;4910043;29;20424;-72
2021/07/02 08:03:00;;;;;;;26.65;23.95;;;22.20;63.50;;;;;;4917280;29;20032;-72
2021/07/02 08:05:27;;;;;;;25.42;22.77;;;22.70;64.10;;;;;;4929866;29;20476;-71
2021/07/02 08:07:52;;;;;;;25.00;22.45;;;23.40;64.30;;;;;;4929675;29;20621;-72
2021/07/02 08:10:22;;;;;;;25.10;22.60;;;24.10;64.60;;;;;;4928683;29;20035;-72
2021/07/02 08:12:48;;;;;;;25.48;23.00;;;24.60;63.20;;;;;;4924220;29;20028;-72
2021/07/02 08:15:16;;;;;;;24.42;22.23;;;24.90;62.70;;;;;;4910211;29;20067;-73
2021/07/02 08:17:42;;;;;;;22.55;20.52;;;25.10;62.10;;;;;;4912260;29;20063;-72
2021/07/02 08:20:10;;;;;;;23.23;21.13;;;25.30;61.60;;;;;;4923140;29;20040;-75
2021/07/02 08:22:36;;;;;;;23.15;20.67;;;25.60;61.10;;;;;;4907984;29;20455;-76
2021/07/02 08:25:03;;;;;;;21.92;19.98;;;25.80;60.50;;;;;;4897318;29;20073;-72
2021/07/02 08:27:34;;;;;;;21.92;19.92;;;26.10;59.80;;;;;;4894084;29;20041;-73
2021/07/02 08:30:00;;;;;;;24.27;21.33;;;26.70;59.00;;;;;;4928225;29;20353;-74
2021/07/02 08:32:25;;;;;;;21.08;19.05;;;27.30;57.80;;;;;;4929612;29;20597;-74
2021/07/02 08:34:52;;;;;;;20.35;18.45;;;27.80;56.50;;;;;;4929310;29;20062;-72
2021/07/02 08:37:18;;;;;;;21.35;19.10;;;28.30;55.30;;;;;;4929491;29;20087;-72
2021/07/02 08:39:47;;;;;;;20.88;18.88;;;28.80;54.10;;;;;;4928809;29;20498;-72
2021/07/02 08:42:13;;;;;;;19.00;17.20;;;29.30;53.10;;;;;;4928519;29;20032;-73
2021/07/02 08:44:39;;;;;;;20.45;18.55;;;29.70;52.10;;;;;;4927985;29;20040;-71
2021/07/02 08:47:08;;;;;;;21.45;19.38;;;30.10;51.30;;;;;;4928153;29;20054;-73
2021/07/02 08:49:34;;;;;;;20.80;18.73;;;30.30;50.50;;;;;;4943100;29;20506;-73
2021/07/02 08:52:00;;;;;;;20.00;18.10;;;30.60;50.10;;;;;;4927145;29;20027;-72
2021/07/02 08:54:26;;;;;;;20.48;18.42;;;30.60;49.50;;;;;;4928872;29;20043;-72
2021/07/02 08:56:58;;;;;;;20.42;18.45;;;30.50;49.20;;;;;;4928540;29;20048;-71
2021/07/02 08:59:27;;;;;;;20.15;18.35;;;30.00;49.40;;;;;;4929026;29;20327;-71
2021/07/02 09:01:53;;;;;;;20.63;18.65;;;29.80;49.70;;;;;;4927525;29;20395;-72
2021/07/02 09:04:24;;;;;;;20.13;18.30;;;29.70;49.40;;;;;;4928648;29;20038;-72
2021/07/02 09:07:11;;;;;;;19.80;18.15;;;29.60;49.20;;;;;;4928914;29;20489;-71
2021/07/02 09:09:48;;;;;;;20.20;18.05;;;29.20;49.80;;;;;;4908379;29;20510;-71
2021/07/02 09:12:15;;;;;;;20.77;18.58;;;28.90;50.30;;;;;;4902245;29;20559;-71
2021/07/02 09:15:00;;;;;;;19.70;17.25;;;28.60;50.70;;;;;;4928482;29;20035;-71
2021/07/02 09:17:27;;;;;;;20.42;18.45;;;28.30;51.30;;;;;;4928335;29;20327;-71
2021/07/02 09:20:09;;;;;;;19.50;17.83;;;28.10;51.70;;;;;;4928998;29;20083;-71
2021/07/02 09:22:44;;;;;;;19.58;17.67;;;28.00;51.60;;;;;;4926695;29;20027;-71
2021/07/02 09:25:21;;;;;;;16.80;15.15;;;28.10;51.50;;;;;;4927249;29;20032;-71
2021/07/02 09:27:47;;;;;;;16.88;15.43;;;28.20;51.70;;;;;;4932201;29;20042;-71
2021/07/02 09:30:16;;;;;;;16.23;14.27;;;28.30;51.70;;;;;;4946105;29;20038;-72
2021/07/02 09:32:49;;;;;;;16.52;14.90;;;28.20;51.70;;;;;;4930569;29;20468;-71
2021/07/02 09:35:17;;;;;;;;;;;27.90;51.60;;;;;;4933377;29;20112;-70
2021/07/02 09:37:48;;;;;;;15.00;13.57;;;27.60;52.20;;;;;;4931624;29;20258;-71
2021/07/02 09:40:16;;;;;;;19.92;14.50;;;27.40;52.80;;;;;;4931740;29;20028;-72
2021/07/02 09:42:42;;;;;;;15.88;13.27;;;27.30;52.60;;;;;;4931348;29;20075;-72
2021/07/02 09:45:15;;;;;;;15.77;13.65;;;27.40;52.70;;;;;;4930113;29;20035;-72
2021/07/02 09:47:44;;;;;;;17.08;15.02;;;27.40;52.80;;;;;;4931319;29;20055;-71
2021/07/02 09:50:30;;;;;;;17.80;15.88;;;27.50;53.00;;;;;;4932498;29;20083;-72
2021/07/02 09:53:00;;;;;;;18.65;16.63;;;27.60;52.90;;;;;;4925847;29;20043;-71
2021/07/02 09:55:29;;;;;;;15.88;14.48;;;27.50;52.80;;;;;;4913079;29;20318;-72
2021/07/02 09:58:08;;;;;;;15.70;14.27;;;27.40;53.00;;;;;;4903863;29;20103;-76
2021/07/02 10:00:55;;;;;;;16.55;14.85;;;27.20;53.30;;;;;;4913965;29;20051;-74
2021/07/02 10:03:45;;;;;;;16.02;13.43;;;27.20;53.50;;;;;;4920740;29;20050;-75
2021/07/02 10:06:28;;;;;;;14.45;12.93;;;27.10;53.50;;;;;;4932005;29;20546;-72
2021/07/02 10:09:00;;;;;;;13.77;12.48;;;26.90;53.70;;;;;;4932166;29;20044;-72
2021/07/02 10:11:26;;;;;;;14.27;12.88;;;26.90;53.80;;;;;;4931952;29;20407;-74
2021/07/02 10:13:52;;;;;;;12.85;10.77;;;26.90;53.80;;;;;;4928105;29;20231;-71
2021/07/02 10:16:19;;;;;;;13.20;10.57;;;26.90;53.60;;;;;;4909481;29;20032;-73
2021/07/02 10:18:56;;;;;;;12.23;10.40;;;26.90;53.60;;;;;;4908688;29;20032;-71
2021/07/02 10:21:25;;;;;;;11.65;10.52;;;26.90;53.50;;;;;;4919560;29;20039;-74
2021/07/02 10:23:54;;;;;;;13.68;10.50;;;26.90;53.60;;;;;;4931792;29;20035;-73
2021/07/02 10:26:23;;;;;;;14.00;11.38;;;27.00;53.60;;;;;;4946277;29;20039;-74
2021/07/02 10:28:49;;;;;;;12.55;11.48;;;27.10;53.50;;;;;;4921050;29;20044;-73
2021/07/02 10:31:18;;;;;;;12.13;10.30;;;27.10;53.20;;;;;;4912973;29;20029;-73
2021/07/02 10:33:49;;;;;;;11.32;10.02;;;27.10;53.30;;;;;;4923328;29;20031;-74
2021/07/02 10:36:17;;;;;;;10.80;9.70;;;27.00;53.10;;;;;;4931155;29;20035;-73
2021/07/02 10:38:45;;;;;;;11.85;8.80;;;27.00;53.20;;;;;;4912575;29;20031;-74
2021/07/02 10:41:15;;;;;;;9.18;8.10;;;27.10;53.20;;;;;;4913799;29;20044;-74
2021/07/02 10:44:07;;;;;;;11.35;9.25;;;27.10;52.80;;;;;;4916879;29;20036;-73
2021/07/02 10:46:36;;;;;;;12.35;8.98;;;27.20;52.60;;;;;;4906699;29;21259;-73
2021/07/02 10:49:05;;;;;;;9.85;8.75;;;27.20;52.40;;;;;;4913940;29;20044;-73
2021/07/02 10:51:32;;;;;;;8.52;7.82;;;27.30;52.30;;;;;;4909385;29;20558;-72
2021/07/02 10:54:26;;;;;;;9.98;8.35;;;27.30;52.40;;;;;;4911030;29;20047;-73
2021/07/02 10:56:59;;;;;;;8.73;7.85;;;27.30;52.60;;;;;;4911396;29;20092;-73
2021/07/02 10:59:37;;;;;;;9.13;8.30;;;27.30;52.40;;;;;;4926201;29;20063;-73
2021/07/02 11:02:06;;;;;;;9.25;8.35;;;27.30;52.40;;;;;;4931005;29;20422;-73
2021/07/02 11:04:34;;;;;;;11.25;7.55;;;27.40;52.30;;;;;;4930467;29;20057;-73
2021/07/02 11:07:26;;;;;;;9.48;7.78;;;27.50;52.30;;;;;;4945710;29;20032;-72
2021/07/02 11:09:55;;;;;;;7.88;7.07;;;27.70;52.40;;;;;;4931047;29;20044;-73
2021/07/02 11:12:23;;;;;;;10.27;7.88;;;27.70;52.10;;;;;;4929598;29;20562;-72
2021/07/02 11:14:52;;;;;;;8.35;7.30;;;27.90;51.70;;;;;;4929647;29;20551;-73
2021/07/02 11:17:22;;;;;;;9.30;7.50;;;27.90;51.70;;;;;;4928737;29;20406;-73
2021/07/02 11:20:17;;;;;;;8.65;6.95;;;28.00;51.40;;;;;;4930287;29;20027;-72
2021/07/02 11:22:52;;;;;;;8.65;6.50;;;28.10;51.30;;;;;;4930784;29;20043;-73
2021/07/02 11:25:33;;;;;;;8.38;7.47;;;28.30;51.30;;;;;;4931218;29;20487;-72
2021/07/02 11:28:03;;;;;;;7.25;6.30;;;28.30;50.70;;;;;;4930369;29;20439;-71
2021/07/02 11:33:02;;;;;;;7.13;6.15;;;28.60;50.70;;;;;;4930104;29;20094;-72
2021/07/02 11:35:41;;;;;;;7.43;6.30;;;28.70;50.80;;;;;;4944916;29;20032;-72
2021/07/02 11:38:14;;;;;;;8.13;7.30;;;28.80;50.50;;;;;;4923266;29;20040;-73
2021/07/02 11:40:48;;;;;;;11.95;7.82;;;28.80;49.90;;;;;;4911525;29;20131;-74
2021/07/02 11:43:15;;;;;;;8.93;7.80;;;28.60;49.80;;;;;;4919184;29;20088;-73
2021/07/02 11:45:49;;;;;;;9.60;7.35;;;28.40;50.10;;;;;;4918765;29;20124;-71
2021/07/02 11:48:21;;;;;;;10.52;7.10;;;28.10;50.40;;;;;;4909208;29;20056;-71
2021/07/02 11:51:09;;;;;;;8.05;6.55;;;27.90;50.70;;;;;;4909195;29;20068;-72
2021/07/02 11:53:42;;;;;;;9.10;6.97;;;27.90;51.10;;;;;;4922098;29;20040;-72
2021/07/02 11:56:25;;;;;;;7.90;6.40;;;28.00;50.90;;;;;;4929811;29;20046;-72
2021/07/02 11:59:06;;;;;;;7.78;6.65;;;28.20;50.80;;;;;;4914296;29;20038;-72
2021/07/02 12:01:38;;;;;;;7.05;6.03;;;28.40;50.40;;;;;;4927474;29;20059;-73
2021/07/02 12:04:12;;;;;;;7.35;6.70;;;28.40;50.20;;;;;;4930154;29;20554;-76
2021/07/02 12:06:56;;;;;;;9.45;7.00;;;28.60;49.90;;;;;;4944560;29;20028;-76
2021/07/02 12:09:27;;;;;;;10.18;6.53;;;28.60;49.60;;;;;;4927554;29;20051;-77
2021/07/02 12:11:58;;;;;;;6.95;5.95;;;28.50;49.40;;;;;;4929806;29;20091;-78
2021/07/02 12:14:25;;;;;;;7.38;5.63;;;28.50;49.70;;;;;;4928875;29;20031;-76
2021/07/02 12:16:52;;;;;;;9.48;6.00;;;28.40;49.80;;;;;;4929892;29;20035;-73
2021/07/02 12:19:24;;;;;;;6.78;6.07;;;28.30;50.00;;;;;;4927662;29;20071;-76
2021/07/02 12:21:59;;;;;;;9.10;8.05;;;28.20;50.30;;;;;;4929589;29;20032;-75
2021/07/02 12:24:30;;;;;;;8.35;7.55;;;28.10;50.20;;;;;;4944391;29;20067;-76
2021/07/02 12:26:59;;;;;;;8.32;7.20;;;28.00;50.20;;;;;;4928992;29;20028;-71
2021/07/02 12:29:26;;;;;;;7.43;6.65;;;27.90;50.40;;;;;;4928993;29;20332;-76
2021/07/02 12:31:55;;;;;;;9.48;7.13;;;27.90;50.40;;;;;;4929515;29;20032;-71
2021/07/02 12:34:24;;;;;;;8.50;7.57;;;27.80;50.70;;;;;;4927538;29;20039;-75
2021/07/02 12:37:02;;;;;;;9.63;8.63;;;27.80;50.80;;;;;;4927809;29;20027;-72
2021/07/02 12:39:44;;;;;;;9.32;7.72;;;27.70;50.70;;;;;;4928813;29;20032;-72